createdAt,value
2019-02-08T00:03:35.116Z,16.23
2019-02-08T00:08:39.044Z,16.47
2019-02-08T00:13:42.984Z,17.03
2019-02-08T00:18:46.655Z,16.30
2019-02-08T00:23:50.398Z,16.33
2019-02-08T00:28:54.135Z,16.20
2019-02-08T00:33:58.278Z,17.13
2019-02-08T00:39:02.009Z,16.33
2019-02-08T00:44:05.835Z,16.63
2019-02-08T00:49:09.494Z,16.47
2019-02-08T00:54:13.229Z,17.17
2019-02-08T00:59:16.889Z,16.67
2019-02-08T01:04:20.552Z,18.07
2019-02-08T01:09:24.308Z,16.53
2019-02-08T01:14:28.244Z,15.50
2019-02-08T01:19:31.908Z,16.07
2019-02-08T01:24:35.588Z,15.83
2019-02-08T01:29:39.275Z,16.47
2019-02-08T01:34:42.935Z,15.93
2019-02-08T01:39:46.668Z,16.30
2019-02-08T01:44:50.324Z,16.10
2019-02-08T01:49:53.984Z,15.90
2019-02-08T01:54:57.652Z,16.33
2019-02-08T02:00:01.625Z,15.60
2019-02-08T02:05:05.877Z,15.43
2019-02-08T02:10:14.292Z,16.40
2019-02-08T02:15:18.385Z,15.87
2019-02-08T02:20:24.036Z,16.33
2019-02-08T02:25:28.148Z,15.23
2019-02-08T02:30:33.868Z,15.80
2019-02-08T02:35:37.689Z,15.03
2019-02-08T02:40:41.562Z,14.97
2019-02-08T02:45:45.230Z,16.03
2019-02-08T02:50:48.900Z,15.80
2019-02-08T02:55:52.579Z,15.70
2019-02-08T03:00:56.319Z,15.33
2019-02-08T03:05:59.980Z,15.73
2019-02-08T03:11:03.720Z,14.80
2019-02-08T03:16:07.458Z,15.57
2019-02-08T03:21:11.135Z,14.90
2019-02-08T03:26:14.800Z,16.17
2019-02-08T03:31:18.494Z,15.07
2019-02-08T03:36:22.233Z,15.93
2019-02-08T03:41:25.911Z,15.43
2019-02-08T03:46:29.574Z,16.20
2019-02-08T03:51:33.239Z,14.97
2019-02-08T03:56:36.975Z,15.97
2019-02-08T04:01:40.639Z,15.73
2019-02-08T04:06:44.313Z,14.53
2019-02-08T04:11:47.979Z,16.67
2019-02-08T04:16:51.724Z,15.83
2019-02-08T04:21:55.394Z,15.63
2019-02-08T04:26:59.068Z,17.33
2019-02-08T04:32:02.745Z,15.90
2019-02-08T04:37:06.478Z,15.27
2019-02-08T04:42:10.138Z,15.87
2019-02-08T04:47:13.808Z,15.83
2019-02-08T04:52:17.471Z,15.40
2019-02-08T04:57:21.215Z,14.80
2019-02-08T05:02:24.878Z,14.77
2019-02-08T05:07:28.543Z,14.40
2019-02-08T05:12:32.211Z,14.13
2019-02-08T05:17:35.875Z,12.73
2019-02-08T05:22:39.814Z,14.00
2019-02-08T05:27:43.572Z,13.27
2019-02-08T05:32:47.239Z,13.93
2019-02-08T05:37:50.975Z,13.87
2019-02-08T05:42:54.687Z,12.43
2019-02-08T05:47:58.441Z,12.43
2019-02-08T05:53:02.095Z,12.40
2019-02-08T05:58:06.863Z,13.10
2019-02-08T06:03:10.549Z,12.63
2019-02-08T06:08:14.242Z,13.10
2019-02-08T06:13:17.989Z,12.73
2019-02-08T06:18:22.391Z,12.77
2019-02-08T06:23:26.312Z,12.23
2019-02-08T06:28:30.198Z,14.07
2019-02-08T06:33:34.432Z,13.30
2019-02-08T06:38:38.168Z,13.43
2019-02-08T06:43:41.859Z,13.37
2019-02-08T06:48:45.530Z,14.13
2019-02-08T06:53:49.210Z,13.27
2019-02-08T06:59:00.751Z,12.20
2019-02-08T07:04:15.822Z,12.70
2019-02-08T07:09:37.507Z,14.93
2019-02-08T07:15:10.270Z,13.50
2019-02-08T07:20:35.295Z,13.00
2019-02-08T07:25:50.740Z,13.27
2019-02-08T07:31:14.063Z,12.37
2019-02-08T07:36:40.381Z,12.73
2019-02-08T07:42:03.080Z,12.97
2019-02-08T07:47:15.446Z,12.33
2019-02-08T07:52:33.295Z,13.23
2019-02-08T07:57:47.219Z,12.33
2019-02-08T08:03:04.283Z,11.40
2019-02-08T08:08:21.495Z,11.30
2019-02-08T08:13:29.739Z,10.60
2019-02-08T08:18:49.848Z,10.10
2019-02-08T08:24:16.624Z,9.43
2019-02-08T08:29:37.331Z,8.50
2019-02-08T08:35:12.092Z,7.90
2019-02-08T08:40:36.346Z,8.17
2019-02-08T08:45:54.355Z,7.73
2019-02-08T08:51:25.772Z,7.33
2019-02-08T08:57:02.515Z,6.83
2019-02-08T09:02:24.634Z,6.20
2019-02-08T09:07:46.475Z,7.20
2019-02-08T09:13:18.091Z,7.03
2019-02-08T09:18:58.919Z,6.50
2019-02-08T09:24:37.635Z,7.33
2019-02-08T09:30:32.759Z,5.87
2019-02-08T09:36:08.264Z,7.33
2019-02-08T09:41:52.626Z,5.20
2019-02-08T09:47:32.912Z,5.07
2019-02-08T09:53:29.523Z,5.37
2019-02-08T09:59:07.355Z,4.43
2019-02-08T10:04:37.598Z,4.50
2019-02-08T10:10:09.515Z,4.03
2019-02-08T10:15:49.190Z,3.97
2019-02-08T10:21:39.227Z,3.97
2019-02-08T10:27:22.612Z,3.90
2019-02-08T10:33:15.071Z,4.00
2019-02-08T10:38:50.595Z,3.20
2019-02-08T10:44:21.299Z,3.37
2019-02-08T10:50:04.224Z,4.10
2019-02-08T10:55:46.414Z,3.53
2019-02-08T11:01:26.560Z,3.80
2019-02-08T11:07:06.747Z,3.87
2019-02-08T11:13:02.855Z,3.97
2019-02-08T11:18:46.843Z,3.60
2019-02-08T11:23:50.858Z,3.50
2019-02-08T11:28:55.159Z,4.07
2019-02-08T11:33:59.005Z,3.50
2019-02-08T11:39:02.686Z,3.10
2019-02-08T11:44:06.714Z,3.63
2019-02-08T11:49:10.640Z,3.10
2019-02-08T11:54:14.375Z,3.53
2019-02-08T11:59:18.104Z,2.97
2019-02-08T12:04:21.827Z,3.27
2019-02-08T12:09:25.493Z,3.80
2019-02-08T12:14:30.553Z,3.30
2019-02-08T12:19:34.355Z,4.20
2019-02-08T12:24:38.032Z,3.77
2019-02-08T12:29:41.695Z,3.53
2019-02-08T12:34:45.365Z,3.40
2019-02-08T12:39:49.019Z,3.40
2019-02-08T12:44:52.675Z,3.80
2019-02-08T12:49:56.355Z,3.50
2019-02-08T12:55:00.542Z,3.57
2019-02-08T13:00:05.681Z,3.63
2019-02-08T13:05:10.427Z,3.37
2019-02-08T13:10:16.747Z,3.13
2019-02-08T13:15:21.320Z,3.77
2019-02-08T13:20:25.570Z,3.67
2019-02-08T13:25:29.450Z,3.50
2019-02-08T13:30:33.331Z,3.37
2019-02-08T13:35:37.347Z,3.57
2019-02-08T13:40:41.090Z,3.70
2019-02-08T13:45:44.775Z,3.57
2019-02-08T13:50:48.460Z,4.40
2019-02-08T13:55:52.339Z,3.70
2019-02-08T14:00:56.061Z,3.50
2019-02-08T14:05:59.759Z,6.07
2019-02-08T14:11:03.492Z,4.13
2019-02-08T14:16:07.304Z,4.20
2019-02-08T14:21:10.973Z,3.60
2019-02-08T14:26:15.324Z,4.13
2019-02-08T14:31:19.081Z,4.57
2019-02-08T14:36:22.871Z,4.27
2019-02-08T14:41:26.646Z,3.93
2019-02-08T14:46:30.331Z,3.93
2019-02-08T14:51:34.008Z,3.87
2019-02-08T14:56:40.079Z,3.27
2019-02-08T15:07:13.640Z,3.63
2019-02-08T15:12:17.354Z,3.23
2019-02-08T15:17:21.064Z,3.80
2019-02-08T15:22:26.354Z,3.10
2019-02-08T15:27:30.283Z,3.70
2019-02-08T15:32:33.983Z,3.53
2019-02-08T15:37:37.735Z,4.17
2019-02-08T15:42:41.479Z,4.23
2019-02-08T15:47:45.214Z,5.83
2019-02-08T15:52:48.970Z,3.33
2019-02-08T15:57:52.735Z,3.47
2019-02-08T16:02:57.088Z,47.07
2019-02-08T16:08:00.864Z,21.47
2019-02-08T16:13:04.976Z,5.30
2019-02-08T16:18:09.348Z,5.57
2019-02-08T16:23:13.312Z,3.43
2019-02-08T16:28:17.027Z,3.40
2019-02-08T16:33:20.736Z,2.90
2019-02-08T16:38:24.503Z,3.20
2019-02-08T16:43:28.167Z,3.00
2019-02-08T16:48:31.839Z,2.70
2019-02-08T16:53:35.766Z,2.57
2019-02-08T16:58:39.454Z,2.30
2019-02-08T17:03:43.210Z,2.57
2019-02-08T17:08:46.887Z,6.20
2019-02-08T17:13:50.878Z,3.20
2019-02-08T17:18:54.562Z,2.67
2019-02-08T17:23:58.235Z,15.17
2019-02-08T17:29:01.891Z,2.33
2019-02-08T17:34:05.718Z,2.73
2019-02-08T17:39:10.007Z,2.10
2019-02-08T17:44:14.018Z,2.60
2019-02-08T17:49:17.716Z,2.63
2019-02-08T17:54:25.777Z,2.70
2019-02-08T17:59:26.895Z,2.70
2019-02-08T18:04:30.583Z,2.57
2019-02-08T18:09:34.379Z,2.27
2019-02-08T18:14:38.248Z,2.80
2019-02-08T18:19:41.962Z,2.60
2019-02-08T18:24:45.827Z,5.00
2019-02-08T18:29:50.446Z,2.17
2019-02-08T18:34:54.293Z,11.43
2019-02-08T18:39:58.178Z,2.50
2019-02-08T18:45:01.831Z,2.10
2019-02-08T18:50:08.811Z,2.43
2019-02-08T18:55:13.264Z,2.30
2019-02-08T19:00:19.659Z,2.60
2019-02-08T19:05:23.477Z,2.93
2019-02-08T19:10:27.134Z,2.40
2019-02-08T19:15:30.878Z,2.47
2019-02-08T19:20:34.671Z,2.40
2019-02-08T19:25:40.247Z,2.37
2019-02-08T19:30:44.688Z,2.63
2019-02-08T19:35:48.355Z,2.50
2019-02-08T19:40:52.338Z,2.87
2019-02-08T19:45:56.355Z,3.33
2019-02-08T19:51:00.019Z,3.07
2019-02-08T19:56:04.192Z,3.10
2019-02-08T20:01:08.002Z,2.97
2019-02-08T20:06:11.754Z,2.97
2019-02-08T20:11:15.482Z,3.00
2019-02-08T20:16:19.235Z,2.87
2019-02-08T20:21:23.207Z,2.63
2019-02-08T20:26:26.968Z,2.87
2019-02-08T20:31:30.628Z,2.80
2019-02-08T20:36:34.423Z,3.00
2019-02-08T20:41:38.691Z,3.13
2019-02-08T20:46:44.260Z,2.77
2019-02-08T20:51:48.205Z,2.93
2019-02-08T20:56:58.729Z,2.97
2019-02-08T21:01:59.800Z,2.47
2019-02-08T21:07:04.815Z,2.50
2019-02-08T21:12:08.711Z,3.17
2019-02-08T21:17:12.374Z,3.00
2019-02-08T21:22:16.042Z,2.63
2019-02-08T21:27:19.722Z,2.63
2019-02-08T21:32:23.566Z,2.93
2019-02-08T21:37:27.225Z,3.00
2019-02-08T21:42:30.888Z,3.10
2019-02-08T21:47:34.559Z,3.30
2019-02-08T21:52:38.219Z,3.17
2019-02-08T21:57:41.880Z,2.80
2019-02-08T22:02:45.678Z,2.97
2019-02-08T22:07:49.482Z,3.03
2019-02-08T22:12:53.159Z,3.63
2019-02-08T22:17:56.983Z,3.20
2019-02-08T22:23:00.638Z,3.60
2019-02-08T22:28:04.756Z,3.87
2019-02-08T22:33:10.439Z,3.63
2019-02-08T22:38:14.154Z,3.80
2019-02-08T22:43:17.887Z,3.80
2019-02-08T22:48:21.542Z,4.03
2019-02-08T22:53:25.206Z,4.10
2019-02-08T22:58:28.858Z,4.33
2019-02-08T23:03:33.110Z,4.50
2019-02-08T23:08:37.086Z,4.27
2019-02-08T23:13:40.738Z,4.40
2019-02-08T23:18:44.402Z,4.60
2019-02-08T23:23:48.122Z,4.90
2019-02-08T23:28:51.790Z,5.33
2019-02-08T23:33:55.523Z,5.13
2019-02-08T23:38:59.192Z,4.83
2019-02-08T23:44:04.408Z,5.20
2019-02-08T23:49:08.058Z,5.50
2019-02-08T23:54:11.718Z,5.90
2019-02-08T23:59:15.370Z,5.63
